createdAt,value
2023-01-17T00:02:24.761Z,29.07
2023-01-17T00:04:53.904Z,29.43
2023-01-17T00:07:23.736Z,29.03
2023-01-17T00:09:52.226Z,29.34
2023-01-17T00:12:22.875Z,28.95
2023-01-17T00:14:53.259Z,28.81
2023-01-17T00:17:22.757Z,29.23
2023-01-17T00:19:52.088Z,28.97
2023-01-17T00:22:30.326Z,28.94
2023-01-17T00:24:58.453Z,28.69
2023-01-17T00:27:26.681Z,28.60
2023-01-17T00:29:54.886Z,28.21
2023-01-17T00:32:23.046Z,28.43
2023-01-17T00:34:51.626Z,28.59
2023-01-17T00:37:20.307Z,29.10
2023-01-17T00:39:48.500Z,29.14
2023-01-17T00:42:16.611Z,29.04
2023-01-17T00:44:45.397Z,29.28
2023-01-17T00:47:13.826Z,29.17
2023-01-17T00:49:43.599Z,29.34
2023-01-17T00:52:11.766Z,29.10
2023-01-17T00:54:39.892Z,29.77
2023-01-17T00:57:08.699Z,29.91
2023-01-17T00:59:37.309Z,29.50
2023-01-17T01:02:05.555Z,29.50
2023-01-17T01:04:33.999Z,29.75
2023-01-17T01:07:02.406Z,30.06
2023-01-17T01:09:31.078Z,30.32
2023-01-17T01:11:59.191Z,30.34
2023-01-17T01:14:27.373Z,30.10
2023-01-17T01:16:55.503Z,30.34
2023-01-17T01:19:24.249Z,30.25
2023-01-17T01:21:53.009Z,30.51
2023-01-17T01:24:21.594Z,30.23
2023-01-17T01:26:50.043Z,29.99
2023-01-17T01:29:18.415Z,30.46
2023-01-17T01:31:46.662Z,30.86
2023-01-17T01:34:14.769Z,31.06
2023-01-17T01:36:43.033Z,30.71
2023-01-17T01:39:11.210Z,30.36
2023-01-17T01:41:39.878Z,30.47
2023-01-17T01:44:48.296Z,30.34
2023-01-17T01:47:38.703Z,30.66
2023-01-17T01:50:10.746Z,31.39
2023-01-17T01:52:43.782Z,31.45
2023-01-17T01:55:18.175Z,31.37
2023-01-17T01:57:50.944Z,31.24
2023-01-17T02:00:24.904Z,31.41
2023-01-17T02:02:57.258Z,31.58
2023-01-17T02:05:29.495Z,31.71
2023-01-17T02:08:10.404Z,31.31
2023-01-17T02:10:41.367Z,31.04
2023-01-17T02:13:10.693Z,31.01
2023-01-17T02:15:47.956Z,31.71
2023-01-17T02:18:39.241Z,32.16
2023-01-17T02:21:29.637Z,32.36
2023-01-17T02:24:23.063Z,32.00
2023-01-17T02:27:03.605Z,32.09
2023-01-17T02:30:10.434Z,31.80
2023-01-17T02:32:52.820Z,31.34
2023-01-17T02:35:33.996Z,30.89
2023-01-17T02:38:17.530Z,30.43
2023-01-17T02:41:00.502Z,31.20
2023-01-17T02:43:29.079Z,31.49
2023-01-17T02:45:57.232Z,31.60
2023-01-17T02:48:30.150Z,31.47
2023-01-17T02:51:07.203Z,31.32
2023-01-17T02:53:57.431Z,30.96
2023-01-17T02:56:34.315Z,30.49
2023-01-17T02:59:30.096Z,30.46
2023-01-17T03:02:04.393Z,30.07
2023-01-17T03:04:48.790Z,29.67
2023-01-17T03:07:21.809Z,29.83
2023-01-17T03:09:55.157Z,29.65
2023-01-17T03:12:26.394Z,29.93
2023-01-17T03:14:55.104Z,30.13
2023-01-17T03:17:28.909Z,30.60
2023-01-17T03:19:57.120Z,30.28
2023-01-17T03:22:27.275Z,30.89
2023-01-17T03:24:55.395Z,31.08
2023-01-17T03:27:24.128Z,30.97
2023-01-17T03:29:53.162Z,30.94
2023-01-17T03:32:22.192Z,30.89
2023-01-17T03:34:50.608Z,30.44
2023-01-17T03:37:18.976Z,30.71
2023-01-17T03:39:47.163Z,30.49
2023-01-17T03:42:15.565Z,30.16
2023-01-17T03:44:43.727Z,30.38
2023-01-17T03:47:11.867Z,30.31
2023-01-17T03:49:40.652Z,29.94
2023-01-17T03:52:08.857Z,29.55
2023-01-17T03:54:38.012Z,29.61
2023-01-17T03:57:06.250Z,29.75
2023-01-17T03:59:34.663Z,30.08
2023-01-17T04:02:03.087Z,30.30
2023-01-17T04:04:31.491Z,29.96
2023-01-17T04:06:59.637Z,29.77
2023-01-17T04:09:28.009Z,29.77
2023-01-17T04:11:56.693Z,29.36
2023-01-17T04:14:24.888Z,29.43
2023-01-17T04:16:53.882Z,29.58
2023-01-17T04:19:22.809Z,29.83
2023-01-17T04:21:50.944Z,30.00
2023-01-17T04:24:19.101Z,30.38
2023-01-17T04:26:48.352Z,30.63
2023-01-17T04:29:17.327Z,30.85
2023-01-17T04:31:45.524Z,30.32
2023-01-17T04:34:14.378Z,30.99
2023-01-17T04:36:43.879Z,31.08
2023-01-17T04:39:12.623Z,30.74
2023-01-17T04:41:41.305Z,30.39
2023-01-17T04:44:09.815Z,30.68
2023-01-17T04:46:37.971Z,30.08
2023-01-17T04:49:06.375Z,30.46
2023-01-17T04:51:35.064Z,30.34
2023-01-17T04:54:04.235Z,29.91
2023-01-17T04:56:32.482Z,29.88
2023-01-17T04:59:00.696Z,29.81
2023-01-17T05:01:28.957Z,29.89
2023-01-17T05:03:57.217Z,29.94
2023-01-17T05:06:25.355Z,30.37
2023-01-17T05:08:53.453Z,30.13
2023-01-17T05:11:21.642Z,29.73
2023-01-17T05:13:49.806Z,29.09
2023-01-17T05:16:19.116Z,28.93
2023-01-17T05:18:47.682Z,28.96
2023-01-17T05:21:15.831Z,28.91
2023-01-17T05:23:43.880Z,28.43
2023-01-17T05:26:12.485Z,28.18
2023-01-17T05:28:40.581Z,28.20
2023-01-17T05:31:09.158Z,28.44
2023-01-17T05:33:37.873Z,28.44
2023-01-17T05:36:06.731Z,28.09
2023-01-17T05:38:34.897Z,28.51
2023-01-17T05:41:03.619Z,28.55
2023-01-17T05:43:31.720Z,29.34
2023-01-17T05:46:00.842Z,29.38
2023-01-17T05:48:29.116Z,29.22
2023-01-17T05:50:57.227Z,29.01
2023-01-17T05:53:25.536Z,28.58
2023-01-17T05:55:53.731Z,28.43
2023-01-17T05:58:22.927Z,28.88
2023-01-17T06:00:51.024Z,28.62
2023-01-17T06:03:19.558Z,29.44
2023-01-17T06:05:47.682Z,29.73
2023-01-17T06:08:15.834Z,29.41
2023-01-17T06:10:45.170Z,29.66
2023-01-17T06:13:14.131Z,29.72
2023-01-17T06:15:43.660Z,29.80
2023-01-17T06:18:15.506Z,30.28
2023-01-17T06:20:44.316Z,30.35
2023-01-17T06:23:14.505Z,30.35
2023-01-17T06:25:45.517Z,30.00
2023-01-17T06:28:16.433Z,29.77
2023-01-17T06:30:45.762Z,29.32
2023-01-17T06:33:15.010Z,28.83
2023-01-17T06:35:51.191Z,28.63
2023-01-17T06:38:20.556Z,28.42
2023-01-17T06:40:49.516Z,28.42
2023-01-17T06:43:17.957Z,28.10
2023-01-17T06:45:46.201Z,28.11
2023-01-17T06:48:14.590Z,28.29
2023-01-17T06:50:42.778Z,28.11
2023-01-17T06:53:11.196Z,28.01
2023-01-17T06:55:39.423Z,28.00
2023-01-17T06:58:09.888Z,28.02
2023-01-17T07:00:40.733Z,27.67
2023-01-17T07:03:21.915Z,27.82
2023-01-17T07:05:50.756Z,27.96
2023-01-17T07:08:20.508Z,28.06
2023-01-17T07:10:49.115Z,27.83
2023-01-17T07:13:17.712Z,27.60
2023-01-17T07:15:45.968Z,27.71
2023-01-17T07:18:14.208Z,27.61
2023-01-17T07:20:43.445Z,27.78
2023-01-17T07:23:11.601Z,27.75
2023-01-17T07:25:39.896Z,27.58
2023-01-17T07:28:08.514Z,27.86
2023-01-17T07:30:36.568Z,27.41
2023-01-17T07:33:04.873Z,27.44
2023-01-17T07:35:33.444Z,27.65
2023-01-17T07:38:01.602Z,27.78
2023-01-17T07:40:30.802Z,27.85
2023-01-17T07:43:02.532Z,27.90
2023-01-17T07:45:30.703Z,28.18
2023-01-17T07:47:58.839Z,27.80
2023-01-17T07:50:27.277Z,27.72
2023-01-17T07:52:56.507Z,27.59
2023-01-17T07:55:24.723Z,27.09
2023-01-17T07:57:53.189Z,26.82
2023-01-17T08:00:22.083Z,26.78
2023-01-17T08:02:50.241Z,26.53
2023-01-17T08:05:18.505Z,26.53
2023-01-17T08:07:47.103Z,26.34
2023-01-17T08:10:15.743Z,25.99
2023-01-17T08:12:50.589Z,25.50
2023-01-17T08:15:19.361Z,24.56
2023-01-17T08:17:49.744Z,23.95
2023-01-17T08:20:18.403Z,22.51
2023-01-17T08:22:47.116Z,21.86
2023-01-17T08:25:15.337Z,21.28
2023-01-17T08:27:44.359Z,20.60
2023-01-17T08:30:12.681Z,20.94
2023-01-17T08:32:40.936Z,20.56
2023-01-17T08:35:10.538Z,19.94
2023-01-17T08:37:38.990Z,19.63
2023-01-17T08:40:08.506Z,19.38
2023-01-17T08:42:36.895Z,18.44
2023-01-17T08:45:07.179Z,17.95
2023-01-17T08:47:35.987Z,17.37
2023-01-17T08:50:05.936Z,17.17
2023-01-17T08:52:34.472Z,16.91
2023-01-17T08:55:04.807Z,17.47
2023-01-17T08:57:34.085Z,17.46
2023-01-17T09:00:02.541Z,17.74
2023-01-17T09:02:30.813Z,18.70
2023-01-17T09:04:59.505Z,19.38
2023-01-17T09:07:38.774Z,20.11
2023-01-17T09:10:09.467Z,21.36
2023-01-17T09:12:48.011Z,21.81
2023-01-17T09:15:19.597Z,22.79
2023-01-17T09:17:48.395Z,24.04
2023-01-17T09:20:17.363Z,24.14
2023-01-17T09:22:46.231Z,24.59
2023-01-17T09:25:15.076Z,24.52
2023-01-17T09:27:47.314Z,24.47
2023-01-17T09:30:16.114Z,24.88
2023-01-17T09:32:44.609Z,25.67
2023-01-17T09:35:13.175Z,26.08
2023-01-17T09:37:41.367Z,26.30
2023-01-17T09:40:15.711Z,26.57
2023-01-17T09:42:43.912Z,26.61
2023-01-17T09:45:17.382Z,26.64
2023-01-17T09:47:49.952Z,26.78
2023-01-17T09:50:31.106Z,26.87
2023-01-17T09:53:04.091Z,26.54
2023-01-17T09:55:42.058Z,26.28
2023-01-17T09:58:16.780Z,25.76
2023-01-17T10:00:58.290Z,25.16
2023-01-17T10:03:56.056Z,24.62
2023-01-17T10:07:02.647Z,24.42
2023-01-17T10:09:52.428Z,25.00
2023-01-17T10:12:35.569Z,25.03
2023-01-17T10:15:35.931Z,24.63
2023-01-17T10:18:46.766Z,24.89
2023-01-17T10:21:48.349Z,24.95
2023-01-17T10:24:19.523Z,24.70
2023-01-17T10:26:57.662Z,24.54
2023-01-17T10:29:31.771Z,24.67
2023-01-17T10:32:01.754Z,24.44
2023-01-17T10:34:42.244Z,24.78
2023-01-17T10:37:39.816Z,24.68
2023-01-17T10:40:46.901Z,24.22
2023-01-17T10:43:45.961Z,24.07
2023-01-17T10:46:33.025Z,23.95
2023-01-17T10:49:02.670Z,23.66
2023-01-17T10:51:40.070Z,23.58
2023-01-17T10:54:24.053Z,22.70
2023-01-17T10:56:52.377Z,22.86
2023-01-17T10:59:40.786Z,22.62
2023-01-17T11:02:23.219Z,22.72
2023-01-17T11:04:55.996Z,22.80
2023-01-17T11:07:27.082Z,22.72
2023-01-17T11:09:57.585Z,22.78
2023-01-17T11:12:47.650Z,22.80
2023-01-17T11:15:21.124Z,22.55
2023-01-17T11:18:04.293Z,22.42
2023-01-17T11:20:38.404Z,21.72
2023-01-17T11:23:17.972Z,21.31
2023-01-17T11:25:55.185Z,20.93
2023-01-17T11:28:27.329Z,20.71
2023-01-17T11:30:58.448Z,19.95
2023-01-17T11:33:36.034Z,19.57
2023-01-17T11:36:04.559Z,19.30
2023-01-17T11:38:33.071Z,19.28
2023-01-17T11:41:10.709Z,18.77
2023-01-17T11:43:57.025Z,18.26
2023-01-17T11:46:26.531Z,17.67
2023-01-17T11:48:59.820Z,17.05
2023-01-17T11:51:40.866Z,16.33
2023-01-17T11:54:30.272Z,15.72
2023-01-17T11:57:01.435Z,15.03
2023-01-17T11:59:32.384Z,14.94
2023-01-17T12:02:19.311Z,14.89
2023-01-17T12:05:03.852Z,15.29
2023-01-17T12:07:41.156Z,15.21
2023-01-17T12:10:24.396Z,14.99
2023-01-17T12:12:55.944Z,14.80
2023-01-17T12:15:42.883Z,14.83
2023-01-17T12:18:57.835Z,15.01
2023-01-17T12:21:57.449Z,14.93
2023-01-17T12:25:06.564Z,14.69
2023-01-17T12:28:04.441Z,14.68
2023-01-17T12:30:59.109Z,14.74
2023-01-17T12:33:53.749Z,14.97
2023-01-17T12:36:22.000Z,15.15
2023-01-17T12:38:51.279Z,14.87
2023-01-17T12:41:29.234Z,14.71
2023-01-17T12:44:00.738Z,14.53
2023-01-17T12:46:32.058Z,14.38
2023-01-17T12:49:44.642Z,14.34
2023-01-17T12:52:25.444Z,14.55
2023-01-17T12:55:00.125Z,14.42
2023-01-17T12:57:35.452Z,14.85
2023-01-17T13:00:17.713Z,14.80
2023-01-17T13:03:23.070Z,14.70
2023-01-17T13:05:52.381Z,14.17
2023-01-17T13:08:43.822Z,14.03
2023-01-17T13:11:23.949Z,13.97
2023-01-17T13:13:52.569Z,14.01
2023-01-17T13:16:34.029Z,14.09
2023-01-17T13:19:28.709Z,14.01
2023-01-17T13:21:58.345Z,14.48
2023-01-17T13:24:34.485Z,14.65
2023-01-17T13:27:21.946Z,14.75
2023-01-17T13:30:14.319Z,15.11
2023-01-17T13:33:07.473Z,15.46
2023-01-17T13:36:19.300Z,15.58
2023-01-17T13:39:02.146Z,15.67
2023-01-17T13:41:42.729Z,15.97
2023-01-17T13:44:12.842Z,15.91
2023-01-17T13:47:00.812Z,15.48
2023-01-17T13:49:47.580Z,15.77
2023-01-17T13:52:19.020Z,15.70
2023-01-17T13:54:50.453Z,15.41
2023-01-17T13:57:25.009Z,15.15
2023-01-17T13:59:54.470Z,14.91
2023-01-17T14:02:39.137Z,14.54
2023-01-17T14:05:13.762Z,14.34
2023-01-17T14:07:48.548Z,14.05
2023-01-17T14:10:45.729Z,13.99
2023-01-17T14:13:37.880Z,13.61
2023-01-17T14:16:27.890Z,13.91
2023-01-17T14:18:57.018Z,14.05
2023-01-17T14:21:28.467Z,13.93
2023-01-17T14:24:05.413Z,14.00
2023-01-17T14:26:36.215Z,13.97
2023-01-17T14:29:42.200Z,13.68
2023-01-17T14:32:14.045Z,13.76
2023-01-17T14:34:46.012Z,13.74
2023-01-17T14:37:40.777Z,13.68
2023-01-17T14:40:24.907Z,13.51
2023-01-17T14:43:03.091Z,13.04
2023-01-17T14:45:34.228Z,12.92
2023-01-17T14:48:05.874Z,12.65
2023-01-17T14:50:39.233Z,12.63
2023-01-17T14:53:27.917Z,12.70
2023-01-17T14:56:01.287Z,12.53
2023-01-17T14:58:34.722Z,12.59
2023-01-17T15:01:14.056Z,12.46
2023-01-17T15:03:51.934Z,12.28
2023-01-17T15:06:29.041Z,12.39
2023-01-17T15:08:57.742Z,12.75
2023-01-17T15:11:30.102Z,13.16
2023-01-17T15:14:01.913Z,12.94
2023-01-17T15:16:33.972Z,13.10
2023-01-17T15:19:11.019Z,13.43
2023-01-17T15:21:41.041Z,13.36
2023-01-17T15:24:18.457Z,13.41
2023-01-17T15:26:47.443Z,13.55
2023-01-17T15:29:24.907Z,13.40
2023-01-17T15:31:58.841Z,13.44
2023-01-17T15:34:43.049Z,13.77
2023-01-17T15:37:29.442Z,13.86
2023-01-17T15:40:15.747Z,13.98
2023-01-17T15:42:47.679Z,14.06
2023-01-17T15:45:19.776Z,14.06
2023-01-17T15:47:48.351Z,14.10
2023-01-17T15:50:31.737Z,14.15
2023-01-17T15:53:06.580Z,14.07
2023-01-17T15:55:38.149Z,13.85
2023-01-17T15:58:24.724Z,14.02
2023-01-17T16:00:53.252Z,14.17
2023-01-17T16:03:30.208Z,14.32
2023-01-17T16:06:00.570Z,14.41
2023-01-17T16:08:36.368Z,14.31
2023-01-17T16:11:08.257Z,14.81
2023-01-17T16:13:38.820Z,14.66
2023-01-17T16:16:17.247Z,14.67
2023-01-17T16:18:47.769Z,14.70
2023-01-17T16:21:25.681Z,14.51
2023-01-17T16:23:54.955Z,14.76
2023-01-17T16:26:24.425Z,14.55
2023-01-17T16:28:53.440Z,14.67
2023-01-17T16:31:21.867Z,14.54
2023-01-17T16:33:50.792Z,14.74
2023-01-17T16:36:19.661Z,15.38
2023-01-17T16:38:50.472Z,15.69
2023-01-17T16:41:22.105Z,15.90
2023-01-17T16:44:00.258Z,16.07
2023-01-17T16:46:30.200Z,15.63
2023-01-17T16:49:01.882Z,15.91
2023-01-17T16:51:30.145Z,16.08
2023-01-17T16:53:58.547Z,15.90
2023-01-17T16:56:27.654Z,15.99
2023-01-17T16:58:55.907Z,16.15
2023-01-17T17:01:24.157Z,16.42
2023-01-17T17:03:52.623Z,16.46
2023-01-17T17:06:20.968Z,16.64
2023-01-17T17:08:49.341Z,16.86
2023-01-17T17:11:22.628Z,17.07
2023-01-17T17:13:51.912Z,17.44
2023-01-17T17:16:26.417Z,17.64
2023-01-17T17:18:57.921Z,17.45
2023-01-17T17:21:26.929Z,17.84
2023-01-17T17:23:57.573Z,17.87
2023-01-17T17:26:31.365Z,18.19
2023-01-17T17:29:00.685Z,18.48
2023-01-17T17:31:29.175Z,18.43
2023-01-17T17:34:00.434Z,18.60
2023-01-17T17:36:29.553Z,18.36
2023-01-17T17:38:58.661Z,18.37
2023-01-17T17:41:30.315Z,18.51
2023-01-17T17:44:01.195Z,18.85
2023-01-17T17:46:30.808Z,18.76
2023-01-17T17:49:00.003Z,18.92
2023-01-17T17:51:31.878Z,19.14
2023-01-17T17:54:06.027Z,19.14
2023-01-17T17:56:34.912Z,19.40
2023-01-17T17:59:05.147Z,19.45
2023-01-17T18:01:33.864Z,19.40
2023-01-17T18:04:03.316Z,19.69
2023-01-17T18:06:31.556Z,19.56
2023-01-17T18:09:01.584Z,19.37
2023-01-17T18:11:31.313Z,19.46
2023-01-17T18:14:01.590Z,19.16
2023-01-17T18:16:36.173Z,19.27
2023-01-17T18:19:06.041Z,19.07
2023-01-17T18:21:39.111Z,18.95
2023-01-17T18:24:10.940Z,18.67
2023-01-17T18:26:45.806Z,18.58
2023-01-17T18:29:15.555Z,18.54
2023-01-17T18:31:45.482Z,18.63
2023-01-17T18:34:16.430Z,18.58
2023-01-17T18:36:45.606Z,18.73
2023-01-17T18:39:19.655Z,18.79
2023-01-17T18:41:48.149Z,18.63
2023-01-17T18:44:17.065Z,18.78
2023-01-17T18:46:45.298Z,18.71
2023-01-17T18:49:15.338Z,18.54
2023-01-17T18:51:43.600Z,18.66
2023-01-17T18:54:12.190Z,18.78
2023-01-17T18:56:40.673Z,18.71
2023-01-17T18:59:13.992Z,18.70
2023-01-17T19:01:42.452Z,18.57
2023-01-17T19:04:12.209Z,18.67
2023-01-17T19:06:42.681Z,18.57
2023-01-17T19:09:13.011Z,18.72
2023-01-17T19:11:41.547Z,18.85
2023-01-17T19:14:11.620Z,18.70
2023-01-17T19:16:41.689Z,18.99
2023-01-17T19:19:12.924Z,19.03
2023-01-17T19:21:41.217Z,18.86
2023-01-17T19:24:11.470Z,18.95
2023-01-17T19:26:40.017Z,18.91
2023-01-17T19:29:09.538Z,18.90
2023-01-17T19:31:40.472Z,18.69
2023-01-17T19:34:09.144Z,18.78
2023-01-17T19:36:39.589Z,18.76
2023-01-17T19:39:08.970Z,18.72
2023-01-17T19:41:43.571Z,18.91
2023-01-17T19:44:13.564Z,18.76
2023-01-17T19:46:42.250Z,18.83
2023-01-17T19:49:11.060Z,18.97
2023-01-17T19:51:39.574Z,18.78
2023-01-17T19:54:07.883Z,19.09
2023-01-17T19:56:36.324Z,18.82
2023-01-17T19:59:04.868Z,18.90
2023-01-17T20:01:34.870Z,18.89
2023-01-17T20:04:04.395Z,18.67
2023-01-17T20:06:36.117Z,18.70
2023-01-17T20:09:06.649Z,18.69
2023-01-17T20:11:35.733Z,18.79
2023-01-17T20:14:04.609Z,18.71
2023-01-17T20:16:36.596Z,18.79
2023-01-17T20:19:05.212Z,18.79
2023-01-17T20:21:33.333Z,18.74
2023-01-17T20:24:01.972Z,19.15
2023-01-17T20:26:33.483Z,18.88
2023-01-17T20:29:04.490Z,19.08
2023-01-17T20:31:32.714Z,19.10
2023-01-17T20:34:00.934Z,19.00
2023-01-17T20:36:29.092Z,19.23
2023-01-17T20:38:57.491Z,19.36
2023-01-17T20:41:30.191Z,19.44
2023-01-17T20:44:00.331Z,19.24
2023-01-17T20:46:31.473Z,19.52
2023-01-17T20:48:59.920Z,19.46
2023-01-17T20:51:30.046Z,19.47
2023-01-17T20:54:00.202Z,19.51
2023-01-17T20:56:29.025Z,19.57
2023-01-17T20:58:57.166Z,19.72
2023-01-17T21:01:25.602Z,19.72
2023-01-17T21:03:54.044Z,19.59
2023-01-17T21:06:23.617Z,20.01
2023-01-17T21:08:52.571Z,20.11
2023-01-17T21:11:23.868Z,20.34
2023-01-17T21:13:52.104Z,20.36
2023-01-17T21:16:22.432Z,20.50
2023-01-17T21:18:51.894Z,20.70
2023-01-17T21:21:26.424Z,20.80
2023-01-17T21:23:56.845Z,21.01
2023-01-17T21:26:27.316Z,21.02
2023-01-17T21:28:56.008Z,21.16
2023-01-17T21:31:27.289Z,21.28
2023-01-17T21:34:03.658Z,21.36
2023-01-17T21:36:34.399Z,21.71
2023-01-17T21:39:11.461Z,21.93
2023-01-17T21:41:41.712Z,22.25
2023-01-17T21:44:16.298Z,22.21
2023-01-17T21:46:44.521Z,22.09
2023-01-17T21:49:12.843Z,22.29
2023-01-17T21:51:43.524Z,22.52
2023-01-17T21:54:12.117Z,22.53
2023-01-17T21:56:40.347Z,22.59
2023-01-17T21:59:08.387Z,22.96
2023-01-17T22:01:36.723Z,22.60
2023-01-17T22:04:05.105Z,22.79
2023-01-17T22:06:34.271Z,22.90
2023-01-17T22:09:03.744Z,22.76
2023-01-17T22:11:32.210Z,22.93
2023-01-17T22:14:00.891Z,22.51
2023-01-17T22:16:29.014Z,23.01
2023-01-17T22:18:57.719Z,22.83
2023-01-17T22:21:28.632Z,23.33
2023-01-17T22:23:59.431Z,23.29
2023-01-17T22:26:30.534Z,23.75
2023-01-17T22:29:02.165Z,23.80
2023-01-17T22:31:31.557Z,23.85
2023-01-17T22:34:02.480Z,23.88
2023-01-17T22:36:34.790Z,23.92
2023-01-17T22:39:03.025Z,23.89
2023-01-17T22:41:31.581Z,23.88
2023-01-17T22:44:01.147Z,24.25
2023-01-17T22:46:32.951Z,23.97
2023-01-17T22:49:01.579Z,24.15
2023-01-17T22:51:29.809Z,24.38
2023-01-17T22:54:00.583Z,24.20
2023-01-17T22:56:32.684Z,24.96
2023-01-17T22:59:01.724Z,24.61
2023-01-17T23:01:32.075Z,24.35
2023-01-17T23:04:04.785Z,24.39
2023-01-17T23:06:35.670Z,24.83
2023-01-17T23:09:07.988Z,24.62
2023-01-17T23:11:42.741Z,24.76
2023-01-17T23:14:14.070Z,24.38
2023-01-17T23:16:47.640Z,24.40
2023-01-17T23:19:16.130Z,24.23
2023-01-17T23:21:44.252Z,24.69
2023-01-17T23:24:13.319Z,24.90
2023-01-17T23:26:41.466Z,25.39
2023-01-17T23:29:09.542Z,25.31
2023-01-17T23:31:37.729Z,25.60
2023-01-17T23:34:07.192Z,25.33
2023-01-17T23:36:35.347Z,25.60
2023-01-17T23:39:03.560Z,25.87
2023-01-17T23:41:31.819Z,26.14
2023-01-17T23:44:00.031Z,25.90
2023-01-17T23:46:28.235Z,26.00
2023-01-17T23:48:56.823Z,25.85
2023-01-17T23:51:25.012Z,25.67
2023-01-17T23:53:53.339Z,25.95
2023-01-17T23:56:24.328Z,25.86
2023-01-17T23:58:53.000Z,26.39
